Herrings, New York
Current Conditions -  °F | °C
As of 12:58 PM on Thursday 29 Jan 2015 (Local Time) from KGTB Reporting Station
Clear Clear  
Wind Chill: 18°   Ceiling: Unl
Heat Index: 29°   Visibility: 10mi
Dew Point:   Wind: 15mph
Humidity: 31%   Direction: 160°SSE
Pressure: 29.94"   Gusts: NA
Location:  43.9769°N, 75.558°W
Report Text: KGTB 291758Z AUTO 16013KT 10SM CLR M02/M17 A2994 RMK AO2 CIG 075 RWY03 SLPNO 60000 T10161168 11016 21160 57049
Loading
Personal Weather Stations






























Interactive Weather Map New forecast layout! Learn more

10-Day Weather Forecast

Advertisements
Track Severe Weather on mobile